Airfield :
LOGIN :

Register | Disclaimer

   EN    FR    IT 

 










Legend :    VFR   Marginal VFR   IFR   Intensive IFR   Very Intensive IFR
Visi :
Ceiling :
>= 8 km
>= 3000ft
5 to 8 km
1000 to 3000 ft
1500m to 5 km
500 to 1000 ft
800 to 1500m
200 to 500 ft
< 800m
< 200 ft
Symbols :   Thunderstorms  Fog  Heavy snow  Heavy precipitations  Wind > 20 kt
SIGMETs :     Misc.  Thunderstorms  Icing  Turbulence  Mountain Waves  Volcanic Ashes







- Airport Elevation : 313 ft
- IATA code : LEH
- Download approach charts


LFOH - Le Havre Octeville

CURRENT METAR :
  • 261230Z AUTO 07009KT CAVOK 15/04 Q1020 NOSIG

EXPIRED METARs :
  • 261200Z AUTO 11008KT 070V150 CAVOK 14/03 Q1020 NOSIG
  • 261130Z AUTO 10009KT 060V140 CAVOK 14/02 Q1020 NOSIG
  • 261100Z AUTO 09008KT 040V140 CAVOK 13/04 Q1020 NOSIG
  • 261030Z AUTO 09009KT 050V120 CAVOK 13/02 Q1020 NOSIG
  • 261000Z AUTO 08010KT 050V110 CAVOK 12/03 Q1020 NOSIG

TAF TAF LFOH
Valid from the 26 at 12:00 until the 27 at 12:00 UTC


261100Z 2612/2712 09010KT CAVOK
ATIS : +33 2 35 54 64 93
No reported NOTAMs for that airfield.



MET'MAP, your aeronautical weather chart ! - Copyright ORBIFLY December 2007 - Disclaimer

ORBIFLY MET'MAP TEAM :

Programming & Development : Alexandra Zaïnal
Concept & Development : Baudouin d'Aumeries
Co-Development & Prog : Marc-Olivier Méhu
Technical & hardware support : Manuel Goepfert

Contact : metmap@orbifly.com




SOURCES & CREDITS :

   NOAA